sensor_id;sensor_type;location;lat;lon;timestamp;P1;durP1;ratioP1;P2;durP2;ratioP2
47958;SDS011;33718;50.910;-1.514;2024-03-25T09:00:16;5.70;;;1.00;;
47958;SDS011;33718;50.910;-1.514;2024-03-25T09:02:18;7.88;;;1.27;;
47958;SDS011;33718;50.910;-1.514;2024-03-25T09:04:19;8.10;;;0.80;;
47958;SDS011;33718;50.910;-1.514;2024-03-25T09:08:20;11.00;;;1.73;;
47958;SDS011;33718;50.910;-1.514;2024-03-25T09:10:21;7.80;;;1.42;;
47958;SDS011;33718;50.910;-1.514;2024-03-25T09:12:40;8.60;;;1.67;;
47958;SDS011;33718;50.910;-1.514;2024-03-25T09:14:41;6.93;;;1.20;;
47958;SDS011;33718;50.910;-1.514;2024-03-25T09:16:41;19.15;;;1.70;;
47958;SDS011;33718;50.910;-1.514;2024-03-25T09:18:42;9.95;;;1.40;;
47958;SDS011;33718;50.910;-1.514;2024-03-25T09:20:43;11.13;;;2.92;;
47958;SDS011;33718;50.910;-1.514;2024-03-25T09:22:44;13.50;;;1.58;;
47958;SDS011;33718;50.910;-1.514;2024-03-25T09:24:45;10.10;;;2.10;;
47958;SDS011;33718;50.910;-1.514;2024-03-25T09:26:45;17.90;;;2.15;;
47958;SDS011;33718;50.910;-1.514;2024-03-25T09:28:46;9.57;;;2.00;;
47958;SDS011;33718;50.910;-1.514;2024-03-25T09:30:48;10.75;;;1.10;;
47958;SDS011;33718;50.910;-1.514;2024-03-25T09:32:50;12.35;;;1.45;;
47958;SDS011;33718;50.910;-1.514;2024-03-25T09:34:51;13.65;;;1.60;;
47958;SDS011;33718;50.910;-1.514;2024-03-25T09:36:52;17.40;;;2.25;;
47958;SDS011;33718;50.910;-1.514;2024-03-25T09:38:53;19.30;;;2.30;;
47958;SDS011;33718;50.910;-1.514;2024-03-25T09:40:54;7.15;;;1.88;;
47958;SDS011;33718;50.910;-1.514;2024-03-25T09:42:56;17.63;;;2.28;;
47958;SDS011;33718;50.910;-1.514;2024-03-25T09:44:57;7.80;;;1.95;;
47958;SDS011;33718;50.910;-1.514;2024-03-25T09:46:58;10.07;;;1.60;;
47958;SDS011;33718;50.910;-1.514;2024-03-25T09:49:18;11.63;;;1.23;;
47958;SDS011;33718;50.910;-1.514;2024-03-25T09:51:20;13.55;;;1.75;;
47958;SDS011;33718;50.910;-1.514;2024-03-25T09:53:21;15.50;;;2.47;;
47958;SDS011;33718;50.910;-1.514;2024-03-25T09:55:40;7.65;;;1.50;;
47958;SDS011;33718;50.910;-1.514;2024-03-25T09:58:00;13.85;;;1.88;;
47958;SDS011;33718;50.910;-1.514;2024-03-25T10:00:21;21.85;;;2.42;;
47958;SDS011;33718;50.910;-1.514;2024-03-25T10:02:22;13.35;;;1.92;;
47958;SDS011;33718;50.910;-1.514;2024-03-25T10:04:28;12.98;;;1.88;;
47958;SDS011;33718;50.910;-1.514;2024-03-25T10:06:30;11.38;;;1.65;;
47958;SDS011;33718;50.910;-1.514;2024-03-25T10:08:31;12.75;;;1.80;;
47958;SDS011;33718;50.910;-1.514;2024-03-25T10:10:35;8.68;;;1.20;;
47958;SDS011;33718;50.910;-1.514;2024-03-25T10:12:58;7.75;;;1.73;;
47958;SDS011;33718;50.910;-1.514;2024-03-25T10:14:59;9.23;;;1.33;;
47958;SDS011;33718;50.910;-1.514;2024-03-25T10:17:01;11.80;;;1.50;;
47958;SDS011;33718;50.910;-1.514;2024-03-25T10:19:02;8.13;;;1.40;;
47958;SDS011;33718;50.910;-1.514;2024-03-25T10:21:03;10.82;;;1.60;;
47958;SDS011;33718;50.910;-1.514;2024-03-25T10:23:04;10.13;;;1.50;;
47958;SDS011;33718;50.910;-1.514;2024-03-25T10:25:27;10.23;;;1.98;;
47958;SDS011;33718;50.910;-1.514;2024-03-25T10:27:28;11.93;;;1.27;;
47958;SDS011;33718;50.910;-1.514;2024-03-25T10:29:28;7.70;;;1.30;;
47958;SDS011;33718;50.910;-1.514;2024-03-25T10:31:29;12.10;;;1.48;;
47958;SDS011;33718;50.910;-1.514;2024-03-25T10:33:30;13.82;;;1.35;;
47958;SDS011;33718;50.910;-1.514;2024-03-25T10:35:34;14.60;;;1.65;;
47958;SDS011;33718;50.910;-1.514;2024-03-25T10:37:39;6.30;;;1.20;;
47958;SDS011;33718;50.910;-1.514;2024-03-25T10:39:49;11.68;;;1.50;;
47958;SDS011;33718;50.910;-1.514;2024-03-25T10:41:56;12.13;;;1.77;;
47958;SDS011;33718;50.910;-1.514;2024-03-25T10:43:57;8.85;;;1.73;;
47958;SDS011;33718;50.910;-1.514;2024-03-25T10:45:59;10.55;;;2.15;;
47958;SDS011;33718;50.910;-1.514;2024-03-25T10:48:03;12.52;;;1.38;;
47958;SDS011;33718;50.910;-1.514;2024-03-25T10:50:08;10.30;;;2.63;;
47958;SDS011;33718;50.910;-1.514;2024-03-25T10:52:10;7.35;;;1.85;;
47958;SDS011;33718;50.910;-1.514;2024-03-25T10:54:12;10.48;;;1.63;;
47958;SDS011;33718;50.910;-1.514;2024-03-25T10:56:12;10.95;;;1.85;;
47958;SDS011;33718;50.910;-1.514;2024-03-25T10:58:15;11.77;;;1.60;;
47958;SDS011;33718;50.910;-1.514;2024-03-25T11:00:15;9.30;;;1.60;;
47958;SDS011;33718;50.910;-1.514;2024-03-25T11:02:16;8.60;;;1.75;;
47958;SDS011;33718;50.910;-1.514;2024-03-25T11:04:18;11.40;;;1.47;;
47958;SDS011;33718;50.910;-1.514;2024-03-25T11:06:19;10.95;;;2.60;;
47958;SDS011;33718;50.910;-1.514;2024-03-25T11:08:19;10.05;;;1.50;;
47958;SDS011;33718;50.910;-1.514;2024-03-25T11:10:28;12.52;;;2.10;;
47958;SDS011;33718;50.910;-1.514;2024-03-25T11:12:31;7.88;;;1.85;;
47958;SDS011;33718;50.910;-1.514;2024-03-25T11:14:33;10.88;;;1.52;;
47958;SDS011;33718;50.910;-1.514;2024-03-25T11:16:34;12.80;;;1.77;;
47958;SDS011;33718;50.910;-1.514;2024-03-25T11:18:55;7.07;;;1.20;;
47958;SDS011;33718;50.910;-1.514;2024-03-25T11:21:02;10.17;;;2.13;;
47958;SDS011;33718;50.910;-1.514;2024-03-25T11:23:07;8.27;;;1.30;;
47958;SDS011;33718;50.910;-1.514;2024-03-25T11:25:08;7.90;;;1.70;;
47958;SDS011;33718;50.910;-1.514;2024-03-25T11:27:12;12.90;;;1.65;;
47958;SDS011;33718;50.910;-1.514;2024-03-25T11:29:12;5.70;;;1.27;;
47958;SDS011;33718;50.910;-1.514;2024-03-25T11:31:13;9.27;;;1.30;;
47958;SDS011;33718;50.910;-1.514;2024-03-25T11:33:14;8.35;;;1.35;;
47958;SDS011;33718;50.910;-1.514;2024-03-25T11:35:15;6.20;;;1.85;;
47958;SDS011;33718;50.910;-1.514;2024-03-25T11:37:16;19.15;;;2.95;;
47958;SDS011;33718;50.910;-1.514;2024-03-25T11:39:16;9.77;;;1.47;;
47958;SDS011;33718;50.910;-1.514;2024-03-25T11:41:18;10.50;;;1.60;;
47958;SDS011;33718;50.910;-1.514;2024-03-25T11:43:19;7.00;;;1.70;;
47958;SDS011;33718;50.910;-1.514;2024-03-25T11:45:20;8.70;;;1.67;;
47958;SDS011;33718;50.910;-1.514;2024-03-25T11:47:21;15.40;;;2.35;;
47958;SDS011;33718;50.910;-1.514;2024-03-25T11:49:41;9.95;;;1.80;;
47958;SDS011;33718;50.910;-1.514;2024-03-25T11:51:42;11.02;;;2.97;;
47958;SDS011;33718;50.910;-1.514;2024-03-25T11:53:44;11.57;;;1.63;;
47958;SDS011;33718;50.910;-1.514;2024-03-25T11:55:47;12.02;;;2.17;;
47958;SDS011;33718;50.910;-1.514;2024-03-25T11:57:54;7.15;;;1.33;;
47958;SDS011;33718;50.910;-1.514;2024-03-25T11:59:55;10.82;;;2.25;;
47958;SDS011;33718;50.910;-1.514;2024-03-25T12:01:55;8.15;;;1.13;;
47958;SDS011;33718;50.910;-1.514;2024-03-25T12:03:57;9.45;;;1.52;;
47958;SDS011;33718;50.910;-1.514;2024-03-25T12:05:57;13.00;;;1.98;;
47958;SDS011;33718;50.910;-1.514;2024-03-25T12:07:58;11.32;;;1.50;;
47958;SDS011;33718;50.910;-1.514;2024-03-25T12:09:58;10.65;;;2.00;;
47958;SDS011;33718;50.910;-1.514;2024-03-25T12:12:18;10.73;;;1.20;;
47958;SDS011;33718;50.910;-1.514;2024-03-25T12:14:19;10.65;;;1.73;;
47958;SDS011;33718;50.910;-1.514;2024-03-25T12:16:20;5.13;;;1.38;;
47958;SDS011;33718;50.910;-1.514;2024-03-25T12:18:40;9.82;;;1.42;;
47958;SDS011;33718;50.910;-1.514;2024-03-25T12:20:41;6.88;;;1.42;;
47958;SDS011;33718;50.910;-1.514;2024-03-25T12:22:42;9.52;;;1.60;;
47958;SDS011;33718;50.910;-1.514;2024-03-25T12:24:48;9.45;;;1.70;;
47958;SDS011;33718;50.910;-1.514;2024-03-25T12:26:49;10.05;;;1.92;;
47958;SDS011;33718;50.910;-1.514;2024-03-25T12:28:49;13.45;;;1.58;;
47958;SDS011;33718;50.910;-1.514;2024-03-25T12:30:51;6.63;;;2.22;;
47958;SDS011;33718;50.910;-1.514;2024-03-25T12:32:52;7.72;;;1.73;;
47958;SDS011;33718;50.910;-1.514;2024-03-25T12:34:53;9.07;;;1.67;;
47958;SDS011;33718;50.910;-1.514;2024-03-25T12:37:02;8.50;;;1.83;;
47958;SDS011;33718;50.910;-1.514;2024-03-25T12:39:07;7.47;;;2.28;;
47958;SDS011;33718;50.910;-1.514;2024-03-25T12:41:15;18.23;;;2.70;;
47958;SDS011;33718;50.910;-1.514;2024-03-25T12:43:17;12.82;;;2.78;;
47958;SDS011;33718;50.910;-1.514;2024-03-25T12:45:19;14.25;;;2.00;;
47958;SDS011;33718;50.910;-1.514;2024-03-25T12:47:20;11.30;;;1.58;;
47958;SDS011;33718;50.910;-1.514;2024-03-25T12:49:21;5.30;;;1.50;;
47958;SDS011;33718;50.910;-1.514;2024-03-25T12:51:23;7.45;;;1.40;;
47958;SDS011;33718;50.910;-1.514;2024-03-25T12:53:25;9.82;;;1.70;;
47958;SDS011;33718;50.910;-1.514;2024-03-25T12:55:29;8.88;;;1.77;;
47958;SDS011;33718;50.910;-1.514;2024-03-25T12:57:30;8.25;;;1.60;;
47958;SDS011;33718;50.910;-1.514;2024-03-25T12:59:31;10.73;;;1.20;;
47958;SDS011;33718;50.910;-1.514;2024-03-25T13:01:51;13.25;;;1.75;;
47958;SDS011;33718;50.910;-1.514;2024-03-25T13:04:11;6.40;;;1.38;;
47958;SDS011;33718;50.910;-1.514;2024-03-25T13:06:12;4.75;;;0.88;;
47958;SDS011;33718;50.910;-1.514;2024-03-25T13:08:14;8.77;;;1.83;;
47958;SDS011;33718;50.910;-1.514;2024-03-25T13:10:15;6.20;;;1.30;;
47958;SDS011;33718;50.910;-1.514;2024-03-25T13:12:16;11.10;;;1.60;;
47958;SDS011;33718;50.910;-1.514;2024-03-25T13:14:35;7.90;;;1.10;;
47958;SDS011;33718;50.910;-1.514;2024-03-25T13:16:37;10.13;;;1.75;;
47958;SDS011;33718;50.910;-1.514;2024-03-25T13:18:38;11.18;;;1.50;;
47958;SDS011;33718;50.910;-1.514;2024-03-25T13:20:39;9.90;;;2.38;;
47958;SDS011;33718;50.910;-1.514;2024-03-25T13:22:39;7.15;;;1.20;;
47958;SDS011;33718;50.910;-1.514;2024-03-25T13:24:40;12.43;;;1.58;;
47958;SDS011;33718;50.910;-1.514;2024-03-25T13:26:41;10.93;;;1.50;;
47958;SDS011;33718;50.910;-1.514;2024-03-25T13:28:42;8.93;;;1.55;;
47958;SDS011;33718;50.910;-1.514;2024-03-25T13:30:43;11.88;;;2.08;;
47958;SDS011;33718;50.910;-1.514;2024-03-25T13:32:44;12.15;;;1.67;;
47958;SDS011;33718;50.910;-1.514;2024-03-25T13:34:44;7.88;;;1.98;;
47958;SDS011;33718;50.910;-1.514;2024-03-25T13:36:45;13.18;;;1.40;;
47958;SDS011;33718;50.910;-1.514;2024-03-25T13:38:46;9.65;;;1.67;;
47958;SDS011;33718;50.910;-1.514;2024-03-25T13:40:46;7.85;;;1.20;;
47958;SDS011;33718;50.910;-1.514;2024-03-25T13:42:47;11.98;;;1.58;;
47958;SDS011;33718;50.910;-1.514;2024-03-25T13:44:47;4.40;;;1.05;;
47958;SDS011;33718;50.910;-1.514;2024-03-25T13:46:48;11.35;;;1.17;;
47958;SDS011;33718;50.910;-1.514;2024-03-25T13:48:48;8.55;;;1.73;;
47958;SDS011;33718;50.910;-1.514;2024-03-25T13:50:49;8.75;;;2.20;;
47958;SDS011;33718;50.910;-1.514;2024-03-25T13:52:50;14.35;;;1.95;;
47958;SDS011;33718;50.910;-1.514;2024-03-25T13:54:50;11.93;;;3.20;;
47958;SDS011;33718;50.910;-1.514;2024-03-25T13:56:51;11.25;;;1.65;;
47958;SDS011;33718;50.910;-1.514;2024-03-25T13:58:51;5.70;;;1.38;;
47958;SDS011;33718;50.910;-1.514;2024-03-25T14:00:52;7.68;;;1.70;;
47958;SDS011;33718;50.910;-1.514;2024-03-25T14:02:53;10.55;;;1.67;;
47958;SDS011;33718;50.910;-1.514;2024-03-25T14:04:54;9.48;;;2.30;;
47958;SDS011;33718;50.910;-1.514;2024-03-25T14:06:55;11.05;;;1.65;;
47958;SDS011;33718;50.910;-1.514;2024-03-25T14:08:56;8.27;;;1.75;;
47958;SDS011;33718;50.910;-1.514;2024-03-25T14:11:15;8.45;;;1.50;;
47958;SDS011;33718;50.910;-1.514;2024-03-25T14:13:34;10.27;;;2.60;;
47958;SDS011;33718;50.910;-1.514;2024-03-25T14:15:53;10.68;;;2.38;;
47958;SDS011;33718;50.910;-1.514;2024-03-25T14:17:54;16.90;;;1.98;;
47958;SDS011;33718;50.910;-1.514;2024-03-25T14:19:55;13.02;;;2.55;;
47958;SDS011;33718;50.910;-1.514;2024-03-25T14:21:56;14.20;;;3.70;;
47958;SDS011;33718;50.910;-1.514;2024-03-25T14:23:57;8.63;;;1.85;;
47958;SDS011;33718;50.910;-1.514;2024-03-25T14:25:58;10.13;;;2.08;;
47958;SDS011;33718;50.910;-1.514;2024-03-25T14:27:59;10.20;;;2.00;;
47958;SDS011;33718;50.910;-1.514;2024-03-25T14:30:18;7.78;;;1.88;;
47958;SDS011;33718;50.910;-1.514;2024-03-25T14:32:19;9.23;;;1.98;;
47958;SDS011;33718;50.910;-1.514;2024-03-25T14:34:39;14.00;;;1.95;;
47958;SDS011;33718;50.910;-1.514;2024-03-25T14:36:39;13.40;;;1.85;;
47958;SDS011;33718;50.910;-1.514;2024-03-25T14:38:40;10.77;;;2.10;;
47958;SDS011;33718;50.910;-1.514;2024-03-25T14:40:59;11.75;;;1.73;;
47958;SDS011;33718;50.910;-1.514;2024-03-25T14:43:00;8.63;;;1.73;;
47958;SDS011;33718;50.910;-1.514;2024-03-25T14:45:01;15.43;;;2.25;;
47958;SDS011;33718;50.910;-1.514;2024-03-25T14:47:03;13.32;;;2.40;;
47958;SDS011;33718;50.910;-1.514;2024-03-25T14:49:04;13.43;;;1.73;;
47958;SDS011;33718;50.910;-1.514;2024-03-25T14:51:04;9.98;;;1.30;;
47958;SDS011;33718;50.910;-1.514;2024-03-25T14:53:05;6.32;;;1.65;;
47958;SDS011;33718;50.910;-1.514;2024-03-25T14:55:07;13.68;;;1.77;;
47958;SDS011;33718;50.910;-1.514;2024-03-25T14:57:11;6.70;;;1.48;;
47958;SDS011;33718;50.910;-1.514;2024-03-25T14:59:11;9.65;;;1.83;;
47958;SDS011;33718;50.910;-1.514;2024-03-25T15:01:12;10.40;;;2.00;;
47958;SDS011;33718;50.910;-1.514;2024-03-25T15:03:31;16.23;;;3.17;;
47958;SDS011;33718;50.910;-1.514;2024-03-25T15:05:32;10.57;;;2.03;;
47958;SDS011;33718;50.910;-1.514;2024-03-25T15:07:32;10.90;;;1.90;;
47958;SDS011;33718;50.910;-1.514;2024-03-25T15:09:33;7.72;;;1.30;;
47958;SDS011;33718;50.910;-1.514;2024-03-25T15:11:34;7.25;;;1.83;;
47958;SDS011;33718;50.910;-1.514;2024-03-25T15:13:41;7.25;;;1.35;;
47958;SDS011;33718;50.910;-1.514;2024-03-25T15:15:42;5.68;;;1.85;;
47958;SDS011;33718;50.910;-1.514;2024-03-25T15:17:44;13.45;;;2.30;;
47958;SDS011;33718;50.910;-1.514;2024-03-25T15:19:45;6.72;;;1.17;;
47958;SDS011;33718;50.910;-1.514;2024-03-25T15:22:04;7.07;;;1.02;;
47958;SDS011;33718;50.910;-1.514;2024-03-25T15:24:24;9.82;;;2.10;;
47958;SDS011;33718;50.910;-1.514;2024-03-25T15:26:43;11.43;;;1.47;;
47958;SDS011;33718;50.910;-1.514;2024-03-25T15:28:44;13.07;;;2.05;;
47958;SDS011;33718;50.910;-1.514;2024-03-25T15:30:45;16.13;;;2.90;;
47958;SDS011;33718;50.910;-1.514;2024-03-25T15:32:46;16.48;;;3.05;;
47958;SDS011;33718;50.910;-1.514;2024-03-25T15:34:47;12.57;;;2.42;;
47958;SDS011;33718;50.910;-1.514;2024-03-25T15:36:48;19.45;;;4.25;;
47958;SDS011;33718;50.910;-1.514;2024-03-25T15:39:08;8.77;;;2.63;;
47958;SDS011;33718;50.910;-1.514;2024-03-25T15:41:08;16.80;;;2.70;;
47958;SDS011;33718;50.910;-1.514;2024-03-25T15:43:09;15.77;;;3.60;;
47958;SDS011;33718;50.910;-1.514;2024-03-25T15:45:28;13.30;;;1.92;;
47958;SDS011;33718;50.910;-1.514;2024-03-25T15:47:32;15.27;;;2.38;;
47958;SDS011;33718;50.910;-1.514;2024-03-25T15:49:32;12.98;;;3.03;;
47958;SDS011;33718;50.910;-1.514;2024-03-25T15:51:33;7.55;;;2.53;;
47958;SDS011;33718;50.910;-1.514;2024-03-25T15:53:34;11.70;;;2.60;;
47958;SDS011;33718;50.910;-1.514;2024-03-25T15:55:35;14.57;;;3.60;;
47958;SDS011;33718;50.910;-1.514;2024-03-25T15:57:35;10.10;;;4.10;;
47958;SDS011;33718;50.910;-1.514;2024-03-25T15:59:36;6.50;;;2.78;;
47958;SDS011;33718;50.910;-1.514;2024-03-25T16:01:55;12.23;;;2.65;;
47958;SDS011;33718;50.910;-1.514;2024-03-25T16:03:56;17.88;;;2.22;;
47958;SDS011;33718;50.910;-1.514;2024-03-25T16:05:58;8.90;;;2.75;;
47958;SDS011;33718;50.910;-1.514;2024-03-25T16:07:59;14.38;;;2.55;;
47958;SDS011;33718;50.910;-1.514;2024-03-25T16:09:59;14.02;;;2.50;;
47958;SDS011;33718;50.910;-1.514;2024-03-25T16:12:00;20.75;;;3.83;;
47958;SDS011;33718;50.910;-1.514;2024-03-25T16:14:01;22.13;;;3.70;;
47958;SDS011;33718;50.910;-1.514;2024-03-25T16:16:02;23.65;;;4.50;;
47958;SDS011;33718;50.910;-1.514;2024-03-25T16:18:03;10.68;;;3.13;;
47958;SDS011;33718;50.910;-1.514;2024-03-25T16:20:04;8.10;;;2.33;;
47958;SDS011;33718;50.910;-1.514;2024-03-25T16:22:07;11.82;;;2.45;;
47958;SDS011;33718;50.910;-1.514;2024-03-25T16:24:08;10.55;;;2.38;;
47958;SDS011;33718;50.910;-1.514;2024-03-25T16:26:10;11.57;;;2.42;;
47958;SDS011;33718;50.910;-1.514;2024-03-25T16:28:11;7.53;;;2.33;;
47958;SDS011;33718;50.910;-1.514;2024-03-25T16:30:12;11.63;;;2.58;;
47958;SDS011;33718;50.910;-1.514;2024-03-25T16:32:13;8.50;;;2.53;;
47958;SDS011;33718;50.910;-1.514;2024-03-25T16:34:13;10.13;;;2.20;;
47958;SDS011;33718;50.910;-1.514;2024-03-25T16:36:14;12.70;;;2.90;;
47958;SDS011;33718;50.910;-1.514;2024-03-25T16:38:15;13.23;;;2.50;;
47958;SDS011;33718;50.910;-1.514;2024-03-25T16:40:15;16.05;;;2.42;;
47958;SDS011;33718;50.910;-1.514;2024-03-25T16:42:16;13.05;;;2.35;;
47958;SDS011;33718;50.910;-1.514;2024-03-25T16:44:17;17.25;;;2.50;;
47958;SDS011;33718;50.910;-1.514;2024-03-25T16:46:17;5.88;;;2.22;;
47958;SDS011;33718;50.910;-1.514;2024-03-25T16:48:18;10.35;;;3.08;;
47958;SDS011;33718;50.910;-1.514;2024-03-25T16:50:18;12.23;;;2.65;;
47958;SDS011;33718;50.910;-1.514;2024-03-25T16:52:19;14.18;;;2.67;;
47958;SDS011;33718;50.910;-1.514;2024-03-25T16:54:20;12.70;;;2.95;;
47958;SDS011;33718;50.910;-1.514;2024-03-25T16:56:20;9.43;;;2.40;;
47958;SDS011;33718;50.910;-1.514;2024-03-25T16:58:42;7.22;;;2.70;;
47958;SDS011;33718;50.910;-1.514;2024-03-25T17:00:42;9.40;;;2.50;;
47958;SDS011;33718;50.910;-1.514;2024-03-25T17:02:43;11.48;;;3.03;;
47958;SDS011;33718;50.910;-1.514;2024-03-25T17:04:44;13.77;;;3.38;;
47958;SDS011;33718;50.910;-1.514;2024-03-25T17:06:45;10.93;;;2.40;;
47958;SDS011;33718;50.910;-1.514;2024-03-25T17:08:46;5.85;;;1.98;;
47958;SDS011;33718;50.910;-1.514;2024-03-25T17:10:47;4.10;;;1.52;;
47958;SDS011;33718;50.910;-1.514;2024-03-25T17:12:47;11.75;;;2.25;;
47958;SDS011;33718;50.910;-1.514;2024-03-25T17:14:48;11.48;;;2.83;;
47958;SDS011;33718;50.910;-1.514;2024-03-25T17:16:49;9.90;;;1.83;;
47958;SDS011;33718;50.910;-1.514;2024-03-25T17:18:49;6.95;;;1.95;;
47958;SDS011;33718;50.910;-1.514;2024-03-25T17:20:50;13.85;;;3.38;;
47958;SDS011;33718;50.910;-1.514;2024-03-25T17:22:57;9.27;;;2.38;;
47958;SDS011;33718;50.910;-1.514;2024-03-25T17:24:58;14.23;;;2.15;;
47958;SDS011;33718;50.910;-1.514;2024-03-25T17:26:59;5.88;;;2.22;;
47958;SDS011;33718;50.910;-1.514;2024-03-25T17:28:59;8.88;;;2.88;;
47958;SDS011;33718;50.910;-1.514;2024-03-25T17:31:04;9.98;;;2.08;;
47958;SDS011;33718;50.910;-1.514;2024-03-25T17:33:23;10.63;;;2.13;;
47958;SDS011;33718;50.910;-1.514;2024-03-25T17:35:24;12.75;;;2.45;;
47958;SDS011;33718;50.910;-1.514;2024-03-25T17:37:24;12.15;;;2.45;;
47958;SDS011;33718;50.910;-1.514;2024-03-25T17:39:25;8.75;;;1.92;;
47958;SDS011;33718;50.910;-1.514;2024-03-25T17:41:25;13.02;;;2.70;;
47958;SDS011;33718;50.910;-1.514;2024-03-25T17:43:26;11.32;;;2.33;;
47958;SDS011;33718;50.910;-1.514;2024-03-25T17:45:27;8.23;;;2.35;;
47958;SDS011;33718;50.910;-1.514;2024-03-25T17:47:27;7.78;;;2.35;;
47958;SDS011;33718;50.910;-1.514;2024-03-25T17:49:28;9.63;;;2.22;;
47958;SDS011;33718;50.910;-1.514;2024-03-25T17:51:29;9.35;;;1.98;;
47958;SDS011;33718;50.910;-1.514;2024-03-25T17:53:29;11.55;;;2.80;;
47958;SDS011;33718;50.910;-1.514;2024-03-25T17:55:30;10.73;;;2.50;;
47958;SDS011;33718;50.910;-1.514;2024-03-25T17:57:30;16.38;;;2.72;;
47958;SDS011;33718;50.910;-1.514;2024-03-25T17:59:31;11.20;;;2.25;;
47958;SDS011;33718;50.910;-1.514;2024-03-25T18:01:50;11.73;;;2.67;;
47958;SDS011;33718;50.910;-1.514;2024-03-25T18:03:51;10.30;;;1.88;;
47958;SDS011;33718;50.910;-1.514;2024-03-25T18:05:52;7.63;;;2.13;;
47958;SDS011;33718;50.910;-1.514;2024-03-25T18:07:52;14.63;;;2.63;;
47958;SDS011;33718;50.910;-1.514;2024-03-25T18:09:53;12.80;;;2.80;;
47958;SDS011;33718;50.910;-1.514;2024-03-25T18:11:53;6.93;;;2.25;;
47958;SDS011;33718;50.910;-1.514;2024-03-25T18:13:54;11.65;;;2.65;;
47958;SDS011;33718;50.910;-1.514;2024-03-25T18:15:56;8.43;;;2.33;;
47958;SDS011;33718;50.910;-1.514;2024-03-25T18:17:56;10.35;;;2.45;;
47958;SDS011;33718;50.910;-1.514;2024-03-25T18:19:58;8.93;;;2.55;;
47958;SDS011;33718;50.910;-1.514;2024-03-25T18:21:59;7.88;;;1.92;;
47958;SDS011;33718;50.910;-1.514;2024-03-25T18:23:59;20.95;;;2.78;;
47958;SDS011;33718;50.910;-1.514;2024-03-25T18:26:00;9.27;;;2.38;;
47958;SDS011;33718;50.910;-1.514;2024-03-25T18:28:01;12.45;;;2.65;;
47958;SDS011;33718;50.910;-1.514;2024-03-25T18:30:01;9.55;;;2.05;;
47958;SDS011;33718;50.910;-1.514;2024-03-25T18:32:02;8.68;;;2.33;;
47958;SDS011;33718;50.910;-1.514;2024-03-25T18:34:04;18.17;;;2.53;;
47958;SDS011;33718;50.910;-1.514;2024-03-25T18:36:04;14.00;;;2.92;;
47958;SDS011;33718;50.910;-1.514;2024-03-25T18:38:06;10.45;;;3.15;;
47958;SDS011;33718;50.910;-1.514;2024-03-25T18:40:06;9.82;;;3.70;;
47958;SDS011;33718;50.910;-1.514;2024-03-25T18:42:32;10.25;;;2.60;;
47958;SDS011;33718;50.910;-1.514;2024-03-25T18:44:33;14.20;;;2.97;;
47958;SDS011;33718;50.910;-1.514;2024-03-25T18:46:34;13.38;;;2.50;;
47958;SDS011;33718;50.910;-1.514;2024-03-25T18:48:35;17.35;;;2.92;;
47958;SDS011;33718;50.910;-1.514;2024-03-25T18:50:57;12.75;;;2.90;;
47958;SDS011;33718;50.910;-1.514;2024-03-25T18:53:00;13.68;;;2.80;;
47958;SDS011;33718;50.910;-1.514;2024-03-25T18:55:20;19.40;;;3.67;;
47958;SDS011;33718;50.910;-1.514;2024-03-25T18:57:22;14.32;;;3.97;;
47958;SDS011;33718;50.910;-1.514;2024-03-25T18:59:23;13.05;;;3.33;;
47958;SDS011;33718;50.910;-1.514;2024-03-25T19:01:25;15.15;;;2.60;;
47958;SDS011;33718;50.910;-1.514;2024-03-25T19:03:27;11.40;;;3.13;;
47958;SDS011;33718;50.910;-1.514;2024-03-25T19:05:28;8.73;;;3.25;;
47958;SDS011;33718;50.910;-1.514;2024-03-25T19:07:29;10.15;;;3.10;;
47958;SDS011;33718;50.910;-1.514;2024-03-25T19:09:31;8.88;;;2.88;;
47958;SDS011;33718;50.910;-1.514;2024-03-25T19:11:32;11.10;;;3.17;;
47958;SDS011;33718;50.910;-1.514;2024-03-25T19:13:37;12.32;;;3.70;;
47958;SDS011;33718;50.910;-1.514;2024-03-25T19:15:38;18.13;;;3.30;;
47958;SDS011;33718;50.910;-1.514;2024-03-25T19:17:40;8.30;;;2.67;;
47958;SDS011;33718;50.910;-1.514;2024-03-25T19:19:41;12.65;;;3.20;;
47958;SDS011;33718;50.910;-1.514;2024-03-25T19:21:42;10.75;;;3.25;;
47958;SDS011;33718;50.910;-1.514;2024-03-25T19:24:02;16.52;;;3.83;;
47958;SDS011;33718;50.910;-1.514;2024-03-25T19:26:02;7.72;;;2.72;;
47958;SDS011;33718;50.910;-1.514;2024-03-25T19:28:03;11.88;;;3.15;;
47958;SDS011;33718;50.910;-1.514;2024-03-25T19:30:22;17.88;;;5.32;;
47958;SDS011;33718;50.910;-1.514;2024-03-25T19:34:41;11.40;;;3.10;;
47958;SDS011;33718;50.910;-1.514;2024-03-25T19:37:01;9.68;;;3.78;;
47958;SDS011;33718;50.910;-1.514;2024-03-25T19:39:02;17.40;;;3.28;;
47958;SDS011;33718;50.910;-1.514;2024-03-25T19:41:03;12.88;;;3.92;;
47958;SDS011;33718;50.910;-1.514;2024-03-25T19:43:03;14.13;;;3.83;;
47958;SDS011;33718;50.910;-1.514;2024-03-25T19:45:05;10.68;;;4.22;;
47958;SDS011;33718;50.910;-1.514;2024-03-25T19:47:06;10.55;;;3.53;;
47958;SDS011;33718;50.910;-1.514;2024-03-25T19:49:07;13.50;;;4.30;;
47958;SDS011;33718;50.910;-1.514;2024-03-25T19:51:08;8.27;;;3.08;;
47958;SDS011;33718;50.910;-1.514;2024-03-25T19:53:10;9.27;;;3.90;;
47958;SDS011;33718;50.910;-1.514;2024-03-25T19:55:10;13.60;;;3.70;;
47958;SDS011;33718;50.910;-1.514;2024-03-25T19:57:13;9.27;;;3.13;;
47958;SDS011;33718;50.910;-1.514;2024-03-25T19:59:32;7.45;;;3.10;;
47958;SDS011;33718;50.910;-1.514;2024-03-25T20:01:52;10.40;;;3.20;;
47958;SDS011;33718;50.910;-1.514;2024-03-25T20:04:12;8.85;;;3.65;;
47958;SDS011;33718;50.910;-1.514;2024-03-25T20:06:13;15.80;;;3.65;;
47958;SDS011;33718;50.910;-1.514;2024-03-25T20:08:34;14.07;;;3.17;;
47958;SDS011;33718;50.910;-1.514;2024-03-25T20:10:53;10.32;;;3.15;;
47958;SDS011;33718;50.910;-1.514;2024-03-25T20:12:54;14.02;;;3.72;;
47958;SDS011;33718;50.910;-1.514;2024-03-25T20:14:55;17.92;;;4.63;;
47958;SDS011;33718;50.910;-1.514;2024-03-25T20:16:56;11.30;;;3.78;;
47958;SDS011;33718;50.910;-1.514;2024-03-25T20:18:56;17.13;;;4.60;;
47958;SDS011;33718;50.910;-1.514;2024-03-25T20:20:57;12.00;;;3.35;;
47958;SDS011;33718;50.910;-1.514;2024-03-25T20:22:58;19.00;;;4.80;;
47958;SDS011;33718;50.910;-1.514;2024-03-25T20:25:00;8.50;;;3.00;;
47958;SDS011;33718;50.910;-1.514;2024-03-25T20:27:01;10.40;;;3.70;;
47958;SDS011;33718;50.910;-1.514;2024-03-25T20:29:03;12.10;;;3.80;;
47958;SDS011;33718;50.910;-1.514;2024-03-25T20:31:06;10.15;;;3.47;;
47958;SDS011;33718;50.910;-1.514;2024-03-25T20:33:06;11.48;;;2.85;;
47958;SDS011;33718;50.910;-1.514;2024-03-25T20:35:07;12.63;;;4.15;;
47958;SDS011;33718;50.910;-1.514;2024-03-25T20:37:08;11.02;;;3.85;;
47958;SDS011;33718;50.910;-1.514;2024-03-25T20:39:08;12.23;;;3.38;;
47958;SDS011;33718;50.910;-1.514;2024-03-25T20:41:09;9.55;;;3.90;;
47958;SDS011;33718;50.910;-1.514;2024-03-25T20:43:13;11.88;;;2.75;;
47958;SDS011;33718;50.910;-1.514;2024-03-25T20:45:14;19.10;;;3.45;;
47958;SDS011;33718;50.910;-1.514;2024-03-25T20:47:14;18.38;;;3.47;;
47958;SDS011;33718;50.910;-1.514;2024-03-25T20:49:15;12.20;;;3.50;;
47958;SDS011;33718;50.910;-1.514;2024-03-25T20:51:16;19.73;;;5.63;;
47958;SDS011;33718;50.910;-1.514;2024-03-25T20:53:16;10.02;;;2.50;;
47958;SDS011;33718;50.910;-1.514;2024-03-25T20:55:17;11.75;;;3.08;;
47958;SDS011;33718;50.910;-1.514;2024-03-25T20:57:18;13.60;;;3.30;;
47958;SDS011;33718;50.910;-1.514;2024-03-25T20:59:19;11.13;;;2.83;;
47958;SDS011;33718;50.910;-1.514;2024-03-25T21:01:20;14.75;;;3.20;;
47958;SDS011;33718;50.910;-1.514;2024-03-25T21:03:40;15.13;;;3.17;;
47958;SDS011;33718;50.910;-1.514;2024-03-25T21:05:40;9.38;;;2.42;;
47958;SDS011;33718;50.910;-1.514;2024-03-25T21:07:41;17.50;;;3.33;;
47958;SDS011;33718;50.910;-1.514;2024-03-25T21:09:42;10.57;;;2.50;;